Terminal Aerodrome Forecast
Issued by NWS Riverton, WY

Home | Current Version | Previous Version | Text Only | Print | Product List | Glossary On
Versions: 1 2 3 4 5 6 7 8 9 10 11 12
233
FTUS45 KRIW 232324
TAFRIW
TAF
KRIW 232324Z 2400/2424 29008KT P6SM SCT090 BKN150
     FM240300 25011KT P6SM SCT100 BKN150
     FM241100 30008KT P6SM SCT120=

USA.gov is the U.S. government's official web portal to all federal, state and local government web resources and services.